sensor_id;sensor_type;location;lat;lon;timestamp;P1;durP1;ratioP1;P2;durP2;ratioP2
39620;SDS011;25309;48.686;9.170;2023-03-05T00:00:27;31.27;;;14.73;;
39620;SDS011;25309;48.686;9.170;2023-03-05T00:02:54;27.50;;;14.50;;
39620;SDS011;25309;48.686;9.170;2023-03-05T00:05:21;27.13;;;14.43;;
39620;SDS011;25309;48.686;9.170;2023-03-05T00:07:48;29.93;;;14.73;;
39620;SDS011;25309;48.686;9.170;2023-03-05T00:10:15;27.70;;;14.70;;
39620;SDS011;25309;48.686;9.170;2023-03-05T00:12:42;29.57;;;14.40;;
39620;SDS011;25309;48.686;9.170;2023-03-05T00:15:11;25.37;;;14.10;;
39620;SDS011;25309;48.686;9.170;2023-03-05T00:17:38;27.70;;;15.03;;
39620;SDS011;25309;48.686;9.170;2023-03-05T00:20:05;29.83;;;14.67;;
39620;SDS011;25309;48.686;9.170;2023-03-05T00:22:33;25.93;;;13.93;;
39620;SDS011;25309;48.686;9.170;2023-03-05T00:25:00;27.37;;;14.33;;
39620;SDS011;25309;48.686;9.170;2023-03-05T00:27:28;29.80;;;14.80;;
39620;SDS011;25309;48.686;9.170;2023-03-05T00:29:55;29.47;;;14.80;;
39620;SDS011;25309;48.686;9.170;2023-03-05T00:32:23;27.97;;;15.03;;
39620;SDS011;25309;48.686;9.170;2023-03-05T00:34:50;31.73;;;15.97;;
39620;SDS011;25309;48.686;9.170;2023-03-05T00:37:18;31.17;;;16.30;;
39620;SDS011;25309;48.686;9.170;2023-03-05T00:39:45;31.57;;;15.90;;
39620;SDS011;25309;48.686;9.170;2023-03-05T00:42:12;30.70;;;15.50;;
39620;SDS011;25309;48.686;9.170;2023-03-05T00:44:39;30.97;;;15.47;;
39620;SDS011;25309;48.686;9.170;2023-03-05T00:47:05;32.97;;;16.80;;
39620;SDS011;25309;48.686;9.170;2023-03-05T00:49:34;31.30;;;16.20;;
39620;SDS011;25309;48.686;9.170;2023-03-05T00:52:01;31.80;;;16.53;;
39620;SDS011;25309;48.686;9.170;2023-03-05T00:54:27;30.07;;;16.07;;
39620;SDS011;25309;48.686;9.170;2023-03-05T00:56:54;32.83;;;16.00;;
39620;SDS011;25309;48.686;9.170;2023-03-05T00:59:21;34.10;;;16.77;;
39620;SDS011;25309;48.686;9.170;2023-03-05T01:01:48;30.77;;;16.37;;
39620;SDS011;25309;48.686;9.170;2023-03-05T01:04:15;32.20;;;16.20;;
39620;SDS011;25309;48.686;9.170;2023-03-05T01:06:44;33.83;;;16.97;;
39620;SDS011;25309;48.686;9.170;2023-03-05T01:09:12;32.43;;;17.03;;
39620;SDS011;25309;48.686;9.170;2023-03-05T01:11:39;34.00;;;17.30;;
39620;SDS011;25309;48.686;9.170;2023-03-05T01:14:06;33.73;;;17.50;;
39620;SDS011;25309;48.686;9.170;2023-03-05T01:16:33;36.23;;;18.10;;
39620;SDS011;25309;48.686;9.170;2023-03-05T01:19:00;32.80;;;17.07;;
39620;SDS011;25309;48.686;9.170;2023-03-05T01:21:27;33.97;;;17.43;;
39620;SDS011;25309;48.686;9.170;2023-03-05T01:23:55;33.87;;;17.23;;
39620;SDS011;25309;48.686;9.170;2023-03-05T01:26:22;36.43;;;16.83;;
39620;SDS011;25309;48.686;9.170;2023-03-05T01:28:49;32.73;;;17.43;;
39620;SDS011;25309;48.686;9.170;2023-03-05T01:31:16;36.00;;;16.97;;
39620;SDS011;25309;48.686;9.170;2023-03-05T01:33:43;34.60;;;17.20;;
39620;SDS011;25309;48.686;9.170;2023-03-05T01:36:11;34.97;;;18.10;;
39620;SDS011;25309;48.686;9.170;2023-03-05T01:38:41;36.97;;;18.07;;
39620;SDS011;25309;48.686;9.170;2023-03-05T01:41:10;31.37;;;16.20;;
39620;SDS011;25309;48.686;9.170;2023-03-05T01:43:39;32.50;;;17.13;;
39620;SDS011;25309;48.686;9.170;2023-03-05T01:49:07;38.07;;;19.00;;
39620;SDS011;25309;48.686;9.170;2023-03-05T01:51:39;38.63;;;18.50;;
39620;SDS011;25309;48.686;9.170;2023-03-05T01:54:10;36.00;;;17.20;;
39620;SDS011;25309;48.686;9.170;2023-03-05T01:56:42;37.07;;;18.47;;
39620;SDS011;25309;48.686;9.170;2023-03-05T01:59:11;34.40;;;18.50;;
39620;SDS011;25309;48.686;9.170;2023-03-05T02:01:39;35.97;;;18.23;;
39620;SDS011;25309;48.686;9.170;2023-03-05T02:04:10;39.13;;;19.20;;
39620;SDS011;25309;48.686;9.170;2023-03-05T02:06:40;36.53;;;18.70;;
39620;SDS011;25309;48.686;9.170;2023-03-05T02:09:09;32.60;;;17.10;;
39620;SDS011;25309;48.686;9.170;2023-03-05T02:11:36;37.70;;;17.90;;
39620;SDS011;25309;48.686;9.170;2023-03-05T02:14:05;36.37;;;18.00;;
39620;SDS011;25309;48.686;9.170;2023-03-05T02:16:35;39.73;;;17.97;;
39620;SDS011;25309;48.686;9.170;2023-03-05T02:19:04;35.90;;;17.87;;
39620;SDS011;25309;48.686;9.170;2023-03-05T02:21:38;35.23;;;17.60;;
39620;SDS011;25309;48.686;9.170;2023-03-05T02:24:08;37.90;;;18.27;;
39620;SDS011;25309;48.686;9.170;2023-03-05T02:26:37;35.23;;;18.03;;
39620;SDS011;25309;48.686;9.170;2023-03-05T02:29:04;37.40;;;18.27;;
39620;SDS011;25309;48.686;9.170;2023-03-05T02:31:34;36.73;;;18.90;;
39620;SDS011;25309;48.686;9.170;2023-03-05T02:34:04;35.27;;;18.00;;
39620;SDS011;25309;48.686;9.170;2023-03-05T02:36:32;37.23;;;19.67;;
39620;SDS011;25309;48.686;9.170;2023-03-05T02:39:01;35.33;;;18.47;;
39620;SDS011;25309;48.686;9.170;2023-03-05T02:41:28;36.67;;;19.07;;
39620;SDS011;25309;48.686;9.170;2023-03-05T02:43:57;41.67;;;19.47;;
39620;SDS011;25309;48.686;9.170;2023-03-05T02:46:24;37.57;;;19.07;;
39620;SDS011;25309;48.686;9.170;2023-03-05T02:48:51;36.83;;;18.73;;
39620;SDS011;25309;48.686;9.170;2023-03-05T02:51:18;33.47;;;17.93;;
39620;SDS011;25309;48.686;9.170;2023-03-05T02:53:46;33.37;;;17.47;;
39620;SDS011;25309;48.686;9.170;2023-03-05T02:56:15;33.53;;;18.00;;
39620;SDS011;25309;48.686;9.170;2023-03-05T02:58:42;36.23;;;18.10;;
39620;SDS011;25309;48.686;9.170;2023-03-05T03:01:10;36.40;;;18.57;;
39620;SDS011;25309;48.686;9.170;2023-03-05T03:03:38;33.37;;;17.33;;
39620;SDS011;25309;48.686;9.170;2023-03-05T03:06:07;38.20;;;17.83;;
39620;SDS011;25309;48.686;9.170;2023-03-05T03:08:34;34.63;;;17.50;;
39620;SDS011;25309;48.686;9.170;2023-03-05T03:11:05;34.13;;;17.50;;
39620;SDS011;25309;48.686;9.170;2023-03-05T03:13:34;32.67;;;17.53;;
39620;SDS011;25309;48.686;9.170;2023-03-05T03:16:02;35.93;;;18.37;;
39620;SDS011;25309;48.686;9.170;2023-03-05T03:18:29;34.07;;;17.13;;
39620;SDS011;25309;48.686;9.170;2023-03-05T03:20:56;34.43;;;17.53;;
39620;SDS011;25309;48.686;9.170;2023-03-05T03:23:23;32.30;;;16.80;;
39620;SDS011;25309;48.686;9.170;2023-03-05T03:25:51;33.73;;;17.97;;
39620;SDS011;25309;48.686;9.170;2023-03-05T03:28:18;35.17;;;17.67;;
39620;SDS011;25309;48.686;9.170;2023-03-05T03:30:46;31.70;;;16.50;;
39620;SDS011;25309;48.686;9.170;2023-03-05T03:33:13;35.13;;;17.33;;
39620;SDS011;25309;48.686;9.170;2023-03-05T03:35:40;31.17;;;15.47;;
39620;SDS011;25309;48.686;9.170;2023-03-05T03:38:07;34.27;;;15.70;;
39620;SDS011;25309;48.686;9.170;2023-03-05T03:40:34;33.20;;;16.10;;
39620;SDS011;25309;48.686;9.170;2023-03-05T03:43:02;32.47;;;15.97;;
39620;SDS011;25309;48.686;9.170;2023-03-05T03:45:29;30.37;;;16.20;;
39620;SDS011;25309;48.686;9.170;2023-03-05T03:47:58;35.90;;;17.57;;
39620;SDS011;25309;48.686;9.170;2023-03-05T03:50:25;30.30;;;16.40;;
39620;SDS011;25309;48.686;9.170;2023-03-05T03:52:51;36.57;;;16.90;;
39620;SDS011;25309;48.686;9.170;2023-03-05T03:55:18;29.67;;;16.60;;
39620;SDS011;25309;48.686;9.170;2023-03-05T03:57:45;33.77;;;17.47;;
39620;SDS011;25309;48.686;9.170;2023-03-05T04:00:16;32.80;;;16.57;;
39620;SDS011;25309;48.686;9.170;2023-03-05T04:02:43;33.83;;;17.83;;
39620;SDS011;25309;48.686;9.170;2023-03-05T04:05:12;32.17;;;16.80;;
39620;SDS011;25309;48.686;9.170;2023-03-05T04:07:39;31.43;;;16.50;;
39620;SDS011;25309;48.686;9.170;2023-03-05T04:10:06;35.67;;;17.70;;
39620;SDS011;25309;48.686;9.170;2023-03-05T04:12:33;35.00;;;16.93;;
39620;SDS011;25309;48.686;9.170;2023-03-05T04:15:00;31.93;;;16.70;;
39620;SDS011;25309;48.686;9.170;2023-03-05T04:17:27;29.67;;;16.40;;
39620;SDS011;25309;48.686;9.170;2023-03-05T04:19:54;30.70;;;16.10;;
39620;SDS011;25309;48.686;9.170;2023-03-05T04:22:22;28.77;;;14.90;;
39620;SDS011;25309;48.686;9.170;2023-03-05T04:24:49;28.13;;;13.93;;
39620;SDS011;25309;48.686;9.170;2023-03-05T04:27:16;25.30;;;13.63;;
39620;SDS011;25309;48.686;9.170;2023-03-05T04:29:43;31.63;;;15.53;;
39620;SDS011;25309;48.686;9.170;2023-03-05T04:32:10;32.90;;;16.37;;
39620;SDS011;25309;48.686;9.170;2023-03-05T04:34:37;31.37;;;15.73;;
39620;SDS011;25309;48.686;9.170;2023-03-05T04:37:04;32.73;;;16.97;;
39620;SDS011;25309;48.686;9.170;2023-03-05T04:39:32;30.87;;;16.10;;
39620;SDS011;25309;48.686;9.170;2023-03-05T04:41:59;32.90;;;16.50;;
39620;SDS011;25309;48.686;9.170;2023-03-05T04:44:26;32.57;;;16.70;;
39620;SDS011;25309;48.686;9.170;2023-03-05T04:46:52;37.33;;;18.70;;
39620;SDS011;25309;48.686;9.170;2023-03-05T04:49:19;32.30;;;16.67;;
39620;SDS011;25309;48.686;9.170;2023-03-05T04:51:46;32.03;;;16.70;;
39620;SDS011;25309;48.686;9.170;2023-03-05T04:54:13;33.73;;;16.83;;
39620;SDS011;25309;48.686;9.170;2023-03-05T04:56:42;35.20;;;17.10;;
39620;SDS011;25309;48.686;9.170;2023-03-05T04:59:09;32.10;;;17.10;;
39620;SDS011;25309;48.686;9.170;2023-03-05T05:01:36;31.53;;;16.27;;
39620;SDS011;25309;48.686;9.170;2023-03-05T05:04:04;33.10;;;17.40;;
39620;SDS011;25309;48.686;9.170;2023-03-05T05:06:31;33.13;;;17.13;;
39620;SDS011;25309;48.686;9.170;2023-03-05T05:08:58;34.10;;;16.50;;
39620;SDS011;25309;48.686;9.170;2023-03-05T05:11:25;36.33;;;17.03;;
39620;SDS011;25309;48.686;9.170;2023-03-05T05:13:53;33.63;;;17.13;;
39620;SDS011;25309;48.686;9.170;2023-03-05T05:16:20;32.07;;;16.17;;
39620;SDS011;25309;48.686;9.170;2023-03-05T05:18:47;33.73;;;16.17;;
39620;SDS011;25309;48.686;9.170;2023-03-05T05:21:14;31.17;;;16.17;;
39620;SDS011;25309;48.686;9.170;2023-03-05T05:23:41;32.53;;;14.80;;
39620;SDS011;25309;48.686;9.170;2023-03-05T05:26:08;29.87;;;14.97;;
39620;SDS011;25309;48.686;9.170;2023-03-05T05:28:39;28.80;;;14.87;;
39620;SDS011;25309;48.686;9.170;2023-03-05T05:31:11;26.47;;;13.03;;
39620;SDS011;25309;48.686;9.170;2023-03-05T05:33:40;26.67;;;12.90;;
39620;SDS011;25309;48.686;9.170;2023-03-05T05:36:09;21.87;;;12.20;;
39620;SDS011;25309;48.686;9.170;2023-03-05T05:38:38;25.47;;;12.27;;
39620;SDS011;25309;48.686;9.170;2023-03-05T05:41:05;24.73;;;12.00;;
39620;SDS011;25309;48.686;9.170;2023-03-05T05:43:33;26.30;;;12.13;;
39620;SDS011;25309;48.686;9.170;2023-03-05T05:46:01;24.13;;;12.17;;
39620;SDS011;25309;48.686;9.170;2023-03-05T05:48:31;23.20;;;11.80;;
39620;SDS011;25309;48.686;9.170;2023-03-05T05:51:00;23.10;;;12.27;;
39620;SDS011;25309;48.686;9.170;2023-03-05T05:53:31;27.73;;;13.00;;
39620;SDS011;25309;48.686;9.170;2023-03-05T05:55:58;23.23;;;12.00;;
39620;SDS011;25309;48.686;9.170;2023-03-05T05:58:24;27.20;;;12.73;;
39620;SDS011;25309;48.686;9.170;2023-03-05T06:00:51;23.77;;;11.17;;
39620;SDS011;25309;48.686;9.170;2023-03-05T06:03:18;24.03;;;12.50;;
39620;SDS011;25309;48.686;9.170;2023-03-05T06:05:47;24.30;;;11.60;;
39620;SDS011;25309;48.686;9.170;2023-03-05T06:08:14;23.50;;;11.20;;
39620;SDS011;25309;48.686;9.170;2023-03-05T06:10:41;25.13;;;12.03;;
39620;SDS011;25309;48.686;9.170;2023-03-05T06:13:08;21.13;;;11.17;;
39620;SDS011;25309;48.686;9.170;2023-03-05T06:15:35;23.83;;;11.97;;
39620;SDS011;25309;48.686;9.170;2023-03-05T06:18:02;22.73;;;11.57;;
39620;SDS011;25309;48.686;9.170;2023-03-05T06:20:29;21.17;;;10.97;;
39620;SDS011;25309;48.686;9.170;2023-03-05T06:22:57;22.53;;;10.63;;
39620;SDS011;25309;48.686;9.170;2023-03-05T06:25:24;22.33;;;11.60;;
39620;SDS011;25309;48.686;9.170;2023-03-05T06:27:51;21.90;;;11.30;;
39620;SDS011;25309;48.686;9.170;2023-03-05T06:30:18;20.73;;;11.67;;
39620;SDS011;25309;48.686;9.170;2023-03-05T06:32:45;19.83;;;10.63;;
39620;SDS011;25309;48.686;9.170;2023-03-05T06:35:12;21.97;;;10.90;;
39620;SDS011;25309;48.686;9.170;2023-03-05T06:37:39;22.67;;;10.97;;
39620;SDS011;25309;48.686;9.170;2023-03-05T06:40:08;19.90;;;11.10;;
39620;SDS011;25309;48.686;9.170;2023-03-05T06:42:36;22.63;;;11.27;;
39620;SDS011;25309;48.686;9.170;2023-03-05T06:45:03;22.87;;;11.73;;
39620;SDS011;25309;48.686;9.170;2023-03-05T06:47:31;21.50;;;10.90;;
39620;SDS011;25309;48.686;9.170;2023-03-05T06:49:59;24.93;;;10.80;;
39620;SDS011;25309;48.686;9.170;2023-03-05T06:52:25;19.97;;;10.43;;
39620;SDS011;25309;48.686;9.170;2023-03-05T06:54:52;22.17;;;11.33;;
39620;SDS011;25309;48.686;9.170;2023-03-05T06:57:22;21.63;;;10.90;;
39620;SDS011;25309;48.686;9.170;2023-03-05T06:59:49;22.73;;;11.17;;
39620;SDS011;25309;48.686;9.170;2023-03-05T07:02:16;24.07;;;12.10;;
39620;SDS011;25309;48.686;9.170;2023-03-05T07:04:44;23.27;;;10.87;;
39620;SDS011;25309;48.686;9.170;2023-03-05T07:07:12;22.00;;;11.47;;
39620;SDS011;25309;48.686;9.170;2023-03-05T07:09:39;22.10;;;11.37;;
39620;SDS011;25309;48.686;9.170;2023-03-05T07:12:08;20.30;;;10.90;;
39620;SDS011;25309;48.686;9.170;2023-03-05T07:14:38;19.80;;;11.27;;
39620;SDS011;25309;48.686;9.170;2023-03-05T07:17:05;20.40;;;11.10;;
39620;SDS011;25309;48.686;9.170;2023-03-05T07:19:32;23.57;;;10.93;;
39620;SDS011;25309;48.686;9.170;2023-03-05T07:21:59;22.57;;;11.73;;
39620;SDS011;25309;48.686;9.170;2023-03-05T07:24:26;20.83;;;10.87;;
39620;SDS011;25309;48.686;9.170;2023-03-05T07:26:55;20.03;;;11.80;;
39620;SDS011;25309;48.686;9.170;2023-03-05T07:29:22;20.43;;;10.80;;
39620;SDS011;25309;48.686;9.170;2023-03-05T07:31:51;25.00;;;10.97;;
39620;SDS011;25309;48.686;9.170;2023-03-05T07:34:19;21.43;;;10.83;;
39620;SDS011;25309;48.686;9.170;2023-03-05T07:36:48;23.30;;;11.90;;
39620;SDS011;25309;48.686;9.170;2023-03-05T07:39:16;21.03;;;11.40;;
39620;SDS011;25309;48.686;9.170;2023-03-05T07:41:47;23.10;;;12.50;;
39620;SDS011;25309;48.686;9.170;2023-03-05T07:44:16;20.87;;;11.37;;
39620;SDS011;25309;48.686;9.170;2023-03-05T07:46:43;22.03;;;11.30;;
39620;SDS011;25309;48.686;9.170;2023-03-05T07:49:12;20.93;;;11.40;;
39620;SDS011;25309;48.686;9.170;2023-03-05T07:51:39;20.70;;;11.07;;
39620;SDS011;25309;48.686;9.170;2023-03-05T07:54:07;19.30;;;11.10;;
39620;SDS011;25309;48.686;9.170;2023-03-05T07:56:35;24.57;;;11.50;;
39620;SDS011;25309;48.686;9.170;2023-03-05T07:59:04;19.77;;;11.20;;
39620;SDS011;25309;48.686;9.170;2023-03-05T08:01:32;19.67;;;11.33;;
39620;SDS011;25309;48.686;9.170;2023-03-05T08:04:00;22.67;;;11.67;;
39620;SDS011;25309;48.686;9.170;2023-03-05T08:06:29;22.03;;;11.33;;
39620;SDS011;25309;48.686;9.170;2023-03-05T08:08:56;19.43;;;10.50;;
39620;SDS011;25309;48.686;9.170;2023-03-05T08:11:24;23.03;;;11.37;;
39620;SDS011;25309;48.686;9.170;2023-03-05T08:13:51;21.77;;;11.53;;
39620;SDS011;25309;48.686;9.170;2023-03-05T08:16:19;22.20;;;11.10;;
39620;SDS011;25309;48.686;9.170;2023-03-05T08:18:46;19.20;;;10.37;;
39620;SDS011;25309;48.686;9.170;2023-03-05T08:21:17;22.77;;;11.17;;
39620;SDS011;25309;48.686;9.170;2023-03-05T08:23:46;19.77;;;10.87;;
39620;SDS011;25309;48.686;9.170;2023-03-05T08:26:14;18.73;;;10.70;;
39620;SDS011;25309;48.686;9.170;2023-03-05T08:28:43;17.53;;;10.17;;
39620;SDS011;25309;48.686;9.170;2023-03-05T08:31:10;20.47;;;10.27;;
39620;SDS011;25309;48.686;9.170;2023-03-05T08:33:38;17.43;;;9.60;;
39620;SDS011;25309;48.686;9.170;2023-03-05T08:36:06;17.57;;;10.00;;
39620;SDS011;25309;48.686;9.170;2023-03-05T08:38:34;18.53;;;9.10;;
39620;SDS011;25309;48.686;9.170;2023-03-05T08:41:02;18.60;;;9.87;;
39620;SDS011;25309;48.686;9.170;2023-03-05T08:43:29;17.70;;;10.30;;
39620;SDS011;25309;48.686;9.170;2023-03-05T08:45:58;19.87;;;9.57;;
39620;SDS011;25309;48.686;9.170;2023-03-05T08:48:26;19.43;;;9.77;;
39620;SDS011;25309;48.686;9.170;2023-03-05T08:50:54;16.87;;;9.83;;
39620;SDS011;25309;48.686;9.170;2023-03-05T08:53:21;17.60;;;10.10;;
39620;SDS011;25309;48.686;9.170;2023-03-05T08:55:52;18.80;;;9.77;;
39620;SDS011;25309;48.686;9.170;2023-03-05T08:58:21;20.70;;;10.00;;
39620;SDS011;25309;48.686;9.170;2023-03-05T09:00:48;19.87;;;10.10;;
39620;SDS011;25309;48.686;9.170;2023-03-05T09:03:16;18.73;;;9.83;;
39620;SDS011;25309;48.686;9.170;2023-03-05T09:05:43;18.17;;;9.57;;
39620;SDS011;25309;48.686;9.170;2023-03-05T09:08:10;18.30;;;10.10;;
39620;SDS011;25309;48.686;9.170;2023-03-05T09:10:37;18.27;;;10.00;;
39620;SDS011;25309;48.686;9.170;2023-03-05T09:13:07;19.17;;;9.80;;
39620;SDS011;25309;48.686;9.170;2023-03-05T09:15:35;19.13;;;10.17;;
39620;SDS011;25309;48.686;9.170;2023-03-05T09:18:03;16.70;;;9.37;;
39620;SDS011;25309;48.686;9.170;2023-03-05T09:20:30;18.17;;;9.40;;
39620;SDS011;25309;48.686;9.170;2023-03-05T09:22:57;17.40;;;9.30;;
39620;SDS011;25309;48.686;9.170;2023-03-05T09:25:24;16.70;;;9.73;;
39620;SDS011;25309;48.686;9.170;2023-03-05T09:27:51;17.10;;;9.77;;
39620;SDS011;25309;48.686;9.170;2023-03-05T09:30:18;17.20;;;9.67;;
39620;SDS011;25309;48.686;9.170;2023-03-05T09:32:47;18.90;;;9.87;;
39620;SDS011;25309;48.686;9.170;2023-03-05T09:35:16;19.40;;;10.53;;
39620;SDS011;25309;48.686;9.170;2023-03-05T09:37:43;15.50;;;9.40;;
39620;SDS011;25309;48.686;9.170;2023-03-05T09:40:12;18.37;;;9.73;;
39620;SDS011;25309;48.686;9.170;2023-03-05T09:42:53;19.77;;;10.47;;
39620;SDS011;25309;48.686;9.170;2023-03-05T09:45:29;16.97;;;9.80;;
39620;SDS011;25309;48.686;9.170;2023-03-05T09:48:08;17.83;;;10.47;;
39620;SDS011;25309;48.686;9.170;2023-03-05T09:50:43;18.50;;;10.60;;
39620;SDS011;25309;48.686;9.170;2023-03-05T09:53:15;19.70;;;10.63;;
39620;SDS011;25309;48.686;9.170;2023-03-05T09:55:49;20.80;;;11.07;;
39620;SDS011;25309;48.686;9.170;2023-03-05T09:58:18;17.33;;;9.90;;
39620;SDS011;25309;48.686;9.170;2023-03-05T10:00:57;19.70;;;10.70;;
39620;SDS011;25309;48.686;9.170;2023-03-05T10:03:29;20.13;;;10.63;;
39620;SDS011;25309;48.686;9.170;2023-03-05T10:06:03;19.17;;;10.03;;
39620;SDS011;25309;48.686;9.170;2023-03-05T10:08:42;18.20;;;10.63;;
39620;SDS011;25309;48.686;9.170;2023-03-05T10:11:20;19.60;;;10.70;;
39620;SDS011;25309;48.686;9.170;2023-03-05T10:14:10;20.57;;;10.23;;
39620;SDS011;25309;48.686;9.170;2023-03-05T10:20:03;18.50;;;11.00;;
39620;SDS011;25309;48.686;9.170;2023-03-05T10:22:58;17.73;;;9.97;;
39620;SDS011;25309;48.686;9.170;2023-03-05T10:25:58;18.67;;;10.90;;
39620;SDS011;25309;48.686;9.170;2023-03-05T10:28:33;19.30;;;11.07;;
39620;SDS011;25309;48.686;9.170;2023-03-05T10:31:17;16.07;;;10.77;;
39620;SDS011;25309;48.686;9.170;2023-03-05T10:33:56;17.70;;;11.00;;
39620;SDS011;25309;48.686;9.170;2023-03-05T10:36:39;17.83;;;10.90;;
39620;SDS011;25309;48.686;9.170;2023-03-05T10:39:20;18.23;;;11.00;;
39620;SDS011;25309;48.686;9.170;2023-03-05T10:42:06;18.50;;;10.83;;
39620;SDS011;25309;48.686;9.170;2023-03-05T10:44:43;19.30;;;10.63;;
39620;SDS011;25309;48.686;9.170;2023-03-05T10:47:14;17.87;;;10.37;;
39620;SDS011;25309;48.686;9.170;2023-03-05T10:49:47;18.03;;;10.90;;
39620;SDS011;25309;48.686;9.170;2023-03-05T10:52:18;21.50;;;12.27;;
39620;SDS011;25309;48.686;9.170;2023-03-05T10:54:50;17.60;;;10.17;;
39620;SDS011;25309;48.686;9.170;2023-03-05T10:57:18;16.03;;;10.17;;
39620;SDS011;25309;48.686;9.170;2023-03-05T10:59:47;20.60;;;11.43;;
39620;SDS011;25309;48.686;9.170;2023-03-05T11:02:16;19.67;;;10.93;;
39620;SDS011;25309;48.686;9.170;2023-03-05T11:04:44;17.60;;;10.87;;
39620;SDS011;25309;48.686;9.170;2023-03-05T11:07:31;19.47;;;11.53;;
39620;SDS011;25309;48.686;9.170;2023-03-05T11:10:04;22.10;;;11.83;;
39620;SDS011;25309;48.686;9.170;2023-03-05T11:12:39;20.97;;;11.40;;
39620;SDS011;25309;48.686;9.170;2023-03-05T11:15:19;19.20;;;10.80;;
39620;SDS011;25309;48.686;9.170;2023-03-05T11:18:14;19.37;;;10.90;;
39620;SDS011;25309;48.686;9.170;2023-03-05T11:20:44;20.10;;;10.30;;
39620;SDS011;25309;48.686;9.170;2023-03-05T11:23:14;20.10;;;10.97;;
39620;SDS011;25309;48.686;9.170;2023-03-05T11:25:50;17.60;;;11.13;;
39620;SDS011;25309;48.686;9.170;2023-03-05T11:28:22;21.33;;;11.27;;
39620;SDS011;25309;48.686;9.170;2023-03-05T11:31:00;19.57;;;11.43;;
39620;SDS011;25309;48.686;9.170;2023-03-05T11:33:32;19.40;;;10.97;;
39620;SDS011;25309;48.686;9.170;2023-03-05T11:36:20;20.17;;;10.93;;
39620;SDS011;25309;48.686;9.170;2023-03-05T11:38:51;22.27;;;11.70;;
39620;SDS011;25309;48.686;9.170;2023-03-05T11:41:23;18.77;;;10.87;;
39620;SDS011;25309;48.686;9.170;2023-03-05T11:44:00;18.60;;;10.63;;
39620;SDS011;25309;48.686;9.170;2023-03-05T11:46:29;18.03;;;10.83;;
39620;SDS011;25309;48.686;9.170;2023-03-05T11:49:02;18.90;;;11.57;;
39620;SDS011;25309;48.686;9.170;2023-03-05T11:51:35;21.57;;;11.40;;
39620;SDS011;25309;48.686;9.170;2023-03-05T11:54:14;20.57;;;11.43;;
39620;SDS011;25309;48.686;9.170;2023-03-05T11:56:45;18.40;;;10.93;;
39620;SDS011;25309;48.686;9.170;2023-03-05T11:59:13;20.67;;;11.40;;
39620;SDS011;25309;48.686;9.170;2023-03-05T12:01:45;21.00;;;11.17;;
39620;SDS011;25309;48.686;9.170;2023-03-05T12:04:14;23.17;;;11.80;;
39620;SDS011;25309;48.686;9.170;2023-03-05T12:06:42;20.63;;;13.00;;
39620;SDS011;25309;48.686;9.170;2023-03-05T12:09:14;22.87;;;12.60;;
39620;SDS011;25309;48.686;9.170;2023-03-05T12:11:49;20.03;;;12.33;;
39620;SDS011;25309;48.686;9.170;2023-03-05T12:14:22;20.80;;;12.57;;
39620;SDS011;25309;48.686;9.170;2023-03-05T12:16:55;25.37;;;13.07;;
39620;SDS011;25309;48.686;9.170;2023-03-05T12:19:38;18.53;;;10.27;;
39620;SDS011;25309;48.686;9.170;2023-03-05T12:22:14;17.23;;;9.33;;
39620;SDS011;25309;48.686;9.170;2023-03-05T12:24:45;14.93;;;8.87;;
39620;SDS011;25309;48.686;9.170;2023-03-05T12:27:13;14.77;;;8.43;;
39620;SDS011;25309;48.686;9.170;2023-03-05T12:29:46;15.07;;;8.67;;
39620;SDS011;25309;48.686;9.170;2023-03-05T12:35:26;20.03;;;10.60;;
39620;SDS011;25309;48.686;9.170;2023-03-05T12:37:59;20.50;;;12.20;;
39620;SDS011;25309;48.686;9.170;2023-03-05T12:40:53;19.93;;;11.13;;
39620;SDS011;25309;48.686;9.170;2023-03-05T12:44:13;23.73;;;11.67;;
39620;SDS011;25309;48.686;9.170;2023-03-05T12:46:44;19.73;;;11.23;;
39620;SDS011;25309;48.686;9.170;2023-03-05T12:49:36;20.13;;;11.27;;
39620;SDS011;25309;48.686;9.170;2023-03-05T12:52:04;21.97;;;11.97;;
39620;SDS011;25309;48.686;9.170;2023-03-05T12:54:43;19.63;;;11.03;;
39620;SDS011;25309;48.686;9.170;2023-03-05T12:57:29;19.23;;;11.20;;
39620;SDS011;25309;48.686;9.170;2023-03-05T12:59:59;19.83;;;11.63;;
39620;SDS011;25309;48.686;9.170;2023-03-05T13:02:32;21.90;;;10.93;;
39620;SDS011;25309;48.686;9.170;2023-03-05T13:05:03;20.53;;;11.63;;
39620;SDS011;25309;48.686;9.170;2023-03-05T13:07:33;20.87;;;11.23;;
39620;SDS011;25309;48.686;9.170;2023-03-05T13:10:00;18.63;;;10.93;;
39620;SDS011;25309;48.686;9.170;2023-03-05T13:12:28;22.73;;;12.43;;
39620;SDS011;25309;48.686;9.170;2023-03-05T13:15:01;21.00;;;11.67;;
39620;SDS011;25309;48.686;9.170;2023-03-05T13:17:31;21.17;;;12.30;;
39620;SDS011;25309;48.686;9.170;2023-03-05T13:20:02;21.53;;;12.83;;
39620;SDS011;25309;48.686;9.170;2023-03-05T13:23:00;23.83;;;13.17;;
39620;SDS011;25309;48.686;9.170;2023-03-05T13:25:28;22.13;;;13.00;;
39620;SDS011;25309;48.686;9.170;2023-03-05T13:28:00;23.67;;;13.23;;
39620;SDS011;25309;48.686;9.170;2023-03-05T13:30:29;21.57;;;13.33;;
39620;SDS011;25309;48.686;9.170;2023-03-05T13:33:00;22.50;;;13.13;;
39620;SDS011;25309;48.686;9.170;2023-03-05T13:35:30;23.90;;;13.53;;
39620;SDS011;25309;48.686;9.170;2023-03-05T13:37:58;23.37;;;13.63;;
39620;SDS011;25309;48.686;9.170;2023-03-05T13:40:27;22.30;;;13.27;;
39620;SDS011;25309;48.686;9.170;2023-03-05T13:43:07;23.20;;;13.53;;
39620;SDS011;25309;48.686;9.170;2023-03-05T13:45:36;22.27;;;12.77;;
39620;SDS011;25309;48.686;9.170;2023-03-05T13:48:05;24.27;;;13.37;;
39620;SDS011;25309;48.686;9.170;2023-03-05T13:50:33;22.60;;;13.30;;
39620;SDS011;25309;48.686;9.170;2023-03-05T13:53:14;23.33;;;13.10;;
39620;SDS011;25309;48.686;9.170;2023-03-05T13:55:44;21.93;;;12.97;;
39620;SDS011;25309;48.686;9.170;2023-03-05T14:01:17;20.83;;;12.13;;
39620;SDS011;25309;48.686;9.170;2023-03-05T14:03:54;18.87;;;11.20;;
39620;SDS011;25309;48.686;9.170;2023-03-05T14:06:24;18.80;;;10.87;;
39620;SDS011;25309;48.686;9.170;2023-03-05T14:08:54;20.17;;;10.67;;
39620;SDS011;25309;48.686;9.170;2023-03-05T14:11:28;16.13;;;10.00;;
39620;SDS011;25309;48.686;9.170;2023-03-05T14:13:57;19.83;;;10.47;;
39620;SDS011;25309;48.686;9.170;2023-03-05T14:16:32;17.23;;;10.07;;
39620;SDS011;25309;48.686;9.170;2023-03-05T14:19:00;18.97;;;10.07;;
39620;SDS011;25309;48.686;9.170;2023-03-05T14:21:41;17.33;;;9.50;;
39620;SDS011;25309;48.686;9.170;2023-03-05T14:24:11;17.63;;;10.03;;
39620;SDS011;25309;48.686;9.170;2023-03-05T14:26:40;17.97;;;9.70;;
39620;SDS011;25309;48.686;9.170;2023-03-05T14:29:14;16.10;;;9.47;;
39620;SDS011;25309;48.686;9.170;2023-03-05T14:31:48;18.73;;;9.97;;
39620;SDS011;25309;48.686;9.170;2023-03-05T14:34:19;16.70;;;9.30;;
39620;SDS011;25309;48.686;9.170;2023-03-05T14:36:50;18.80;;;10.17;;
39620;SDS011;25309;48.686;9.170;2023-03-05T14:39:23;16.53;;;9.77;;
39620;SDS011;25309;48.686;9.170;2023-03-05T14:44:39;15.90;;;8.90;;
39620;SDS011;25309;48.686;9.170;2023-03-05T14:47:07;17.50;;;8.80;;
39620;SDS011;25309;48.686;9.170;2023-03-05T14:49:34;16.97;;;9.07;;
39620;SDS011;25309;48.686;9.170;2023-03-05T14:52:01;17.67;;;9.17;;
39620;SDS011;25309;48.686;9.170;2023-03-05T14:54:28;17.87;;;9.40;;